Time;durP1;ratioP1;P1;durP2;ratioP2;P2;SDS_P1;SDS_P2;PMS_P1;PMS_P2;Temp;Humidity;BMP_temperature;BMP_pressure;BME280_temperature;BME280_humidity;BME280_pressure;Samples;Min_cycle;Max_cycle;Signal;HPM_P1;HPM_P2
2021/06/05 00:00:43;;;;;;;;;;;14.80;99.90;;;;;;4943991;29;19942;-93
2021/06/05 00:03:12;;;;;;;;;;;14.80;99.90;;;;;;4944239;29;20346;-94
2021/06/05 00:05:49;;;;;;;;;;;15.00;99.90;;;;;;4943644;28;19926;-93
2021/06/05 00:08:17;;;;;;;;;;;15.10;99.90;;;;;;4943665;29;19930;-96
2021/06/05 00:10:49;;;;;;;;;;;15.10;99.90;;;;;;4944299;29;19930;-94
2021/06/05 00:13:21;;;;;;;;;;;15.30;99.90;;;;;;4943951;29;19927;-94
2021/06/05 00:15:49;;;;;;;;;;;15.30;99.90;;;;;;4956716;29;19957;-94
2021/06/05 00:18:16;;;;;;;;;;;15.20;99.90;;;;;;4944299;29;19941;-95
2021/06/05 00:20:50;;;;;;;;;;;15.00;99.90;;;;;;4944587;29;19933;-94
2021/06/05 00:23:20;;;;;;;;;;;15.00;99.90;;;;;;4950673;28;19934;-95
2021/06/05 00:25:50;;;;;;;;;;;15.10;99.90;;;;;;4966153;28;19937;-95
2021/06/05 00:28:18;;;;;;;;;;;15.10;99.90;;;;;;4965766;28;19953;-94
2021/06/05 00:30:48;;;;;;;;;;;15.10;99.90;;;;;;4963583;29;19966;-94
2021/06/05 00:33:15;;;;;;;;;;;15.00;99.90;;;;;;4943657;29;19958;-95
2021/06/05 00:35:46;;;;;;;;;;;14.90;99.90;;;;;;4943909;29;19957;-94
2021/06/05 00:38:14;;;;;;;;;;;14.90;99.90;;;;;;4943531;29;19953;-95
2021/06/05 00:40:43;;;;;;;;;;;14.90;99.90;;;;;;4943390;29;20350;-96
2021/06/05 00:43:11;;;;;;;;;;;14.80;99.90;;;;;;4943220;29;20314;-95
2021/06/05 00:45:39;;;;;;;;;;;14.80;99.90;;;;;;4943457;29;19933;-93
2021/06/05 00:48:07;;;;;;;;;;;14.70;99.90;;;;;;4943339;29;20033;-93
2021/06/05 00:50:35;;;;;;;;;;;14.70;99.90;;;;;;4943166;29;19926;-95
2021/06/05 00:53:03;;;;;;;;;;;14.60;99.90;;;;;;4943278;29;19934;-94
2021/06/05 00:55:31;;;;;;;;;;;14.50;99.90;;;;;;4942862;29;19926;-93
2021/06/05 00:57:58;;;;;;;;;;;14.30;99.90;;;;;;4942740;29;20389;-94
2021/06/05 01:00:43;;;;;;;;;;;14.20;99.90;;;;;;4943137;29;19930;-94
2021/06/05 01:03:10;;;;;;;;;;;14.20;99.90;;;;;;4943240;29;20377;-94
2021/06/05 01:05:38;;;;;;;;;;;14.30;99.90;;;;;;4942549;29;20358;-94
2021/06/05 01:08:08;;;;;;;;;;;14.20;99.90;;;;;;4942328;29;19933;-94
2021/06/05 01:10:36;;;;;;;;;;;14.20;99.90;;;;;;4942557;29;20393;-94
2021/06/05 01:13:07;;;;;;;;;;;14.20;99.90;;;;;;4943699;29;19933;-95
2021/06/05 01:15:39;;;;;;;;;;;14.20;99.90;;;;;;4950325;29;20425;-93
2021/06/05 01:18:08;;;;;;;;;;;14.00;99.90;;;;;;4955480;29;20017;-93
2021/06/05 01:20:53;;;;;;;;;;;14.00;99.90;;;;;;4963760;28;19987;-94
2021/06/05 01:26:52;;;;;;;;;;;13.80;99.90;;;;;;4958649;28;20400;-94
2021/06/05 01:29:20;;;;;;;;;;;13.70;99.90;;;;;;4942554;29;20418;-94
2021/06/05 01:31:52;;;;;;;;;;;13.70;99.90;;;;;;4942316;29;19926;-93
2021/06/05 01:34:21;;;;;;;;;;;13.60;99.90;;;;;;4943156;29;19926;-94
2021/06/05 01:36:50;;;;;;;;;;;13.60;99.90;;;;;;4942286;29;19926;-94
2021/06/05 01:39:23;;;;;;;;;;;13.60;99.90;;;;;;4941961;29;19933;-94
2021/06/05 01:41:50;;;;;;;;;;;13.50;99.90;;;;;;4942080;29;19927;-93
2021/06/05 01:44:18;;;;;;;;;;;13.40;99.90;;;;;;4942379;29;19942;-94
2021/06/05 01:46:48;;;;;;;;;;;13.30;99.90;;;;;;4942118;29;20323;-94
2021/06/05 01:49:17;;;;;;;;;;;13.40;99.90;;;;;;4942612;29;19926;-93
2021/06/05 01:51:50;;;;;;;;;;;13.60;99.90;;;;;;4941943;29;19934;-94
2021/06/05 01:54:24;;;;;;;;;;;13.90;99.90;;;;;;4942214;29;19926;-93
2021/06/05 01:56:54;;;;;;;;;;;14.20;99.90;;;;;;4941963;29;19927;-95
2021/06/05 01:59:22;;;;;;;;;;;14.50;99.90;;;;;;4941956;29;20044;-94
2021/06/05 02:01:49;;;;;;;;;;;14.80;99.90;;;;;;4941548;29;19933;-93
2021/06/05 02:04:19;;;;;;;;;;;15.10;99.90;;;;;;4941848;29;19981;-94
2021/06/05 02:10:17;;;;;;;;;;;15.30;99.90;;;;;;4958500;29;19945;-93
2021/06/05 02:12:44;;;;;;;;;;;15.50;99.90;;;;;;4942073;29;19980;-95
2021/06/05 02:15:32;;;;;;;;;;;15.50;99.90;;;;;;4941840;29;20010;-93
2021/06/05 02:21:29;;;;;;;;;;;15.50;99.90;;;;;;4958167;29;20008;-94
2021/06/05 02:23:56;;;;;;;;;;;15.50;99.90;;;;;;4941924;29;19930;-93
2021/06/05 02:26:23;;;;;;;;;;;15.60;99.90;;;;;;4941367;29;19926;-94
2021/06/05 02:29:03;;;;;;;;;;;15.60;99.90;;;;;;4943211;28;20397;-93
2021/06/05 02:34:53;;;;;;;;;;;15.70;99.90;;;;;;4957980;29;20385;-94
2021/06/05 02:37:22;;;;;;;;;;;15.70;99.90;;;;;;4941467;29;19927;-94
2021/06/05 02:39:52;;;;;;;;;;;15.80;99.90;;;;;;4941709;29;20243;-94
2021/06/05 02:42:20;;;;;;;;;;;15.90;99.90;;;;;;4940803;29;19930;-94
2021/06/05 02:44:48;;;;;;;;;;;15.90;99.90;;;;;;4941177;29;19938;-93
2021/06/05 02:47:16;;;;;;;;;;;15.90;99.90;;;;;;4941719;29;19926;-93
2021/06/05 02:49:44;;;;;;;;;;;16.00;99.90;;;;;;4943341;29;20013;-93
2021/06/05 02:52:28;;;;;;;;;;;16.00;99.90;;;;;;4947197;29;19927;-92
2021/06/05 02:54:56;;;;;;;;;;;16.00;99.90;;;;;;4951939;29;19927;-93
2021/06/05 02:57:24;;;;;;;;;;;16.10;99.90;;;;;;4953794;29;19937;-92
2021/06/05 02:59:51;;;;;;;;;;;16.20;99.90;;;;;;4944518;29;19930;-93
2021/06/05 03:02:18;;;;;;;;;;;16.10;99.90;;;;;;4940701;29;19927;-93
2021/06/05 03:04:45;;;;;;;;;;;16.20;99.90;;;;;;4941761;29;19932;-92
2021/06/05 03:07:12;;;;;;;;;;;16.20;99.90;;;;;;4949829;28;19925;-92
2021/06/05 03:09:39;;;;;;;;;;;16.20;99.90;;;;;;4961215;28;19952;-95
2021/06/05 03:12:08;;;;;;;;;;;16.30;99.90;;;;;;4946296;29;20242;-94
2021/06/05 03:14:36;;;;;;;;;;;16.30;99.90;;;;;;4940916;29;19926;-93
2021/06/05 03:17:03;;;;;;;;;;;16.30;99.90;;;;;;4941189;29;20005;-94
2021/06/05 03:19:30;;;;;;;;;;;16.20;99.90;;;;;;4940674;29;20021;-93
2021/06/05 03:21:58;;;;;;;;;;;16.30;99.90;;;;;;4940613;29;19953;-93
2021/06/05 03:24:25;;;;;;;;;;;16.20;99.90;;;;;;4940670;29;19934;-93
2021/06/05 03:26:52;;;;;;;;;;;16.20;99.90;;;;;;4940981;29;19927;-94
2021/06/05 03:29:19;;;;;;;;;;;16.10;99.90;;;;;;4940676;29;20363;-93
2021/06/05 03:31:47;;;;;;;;;;;16.10;99.90;;;;;;4940762;29;20438;-95
2021/06/05 03:34:14;;;;;;;;;;;16.00;99.90;;;;;;4940371;29;19926;-94
2021/06/05 03:36:40;;;;;;;;;;;15.90;99.90;;;;;;4940526;29;19933;-93
2021/06/05 03:39:07;;;;;;;;;;;15.80;99.90;;;;;;4940418;29;20369;-93
2021/06/05 03:41:35;;;;;;;;;;;15.70;99.90;;;;;;4941636;29;20310;-94
2021/06/05 03:44:04;;;;;;;;;;;15.60;99.90;;;;;;4944654;29;19926;-93
2021/06/05 03:46:31;;;;;;;;;;;15.50;99.90;;;;;;4952969;28;19920;-94
2021/06/05 03:48:59;;;;;;;;;;;15.40;99.90;;;;;;4966974;28;19915;-94
2021/06/05 03:51:26;;;;;;;;;;;15.40;99.90;;;;;;4965213;28;19950;-93
2021/06/05 03:53:53;;;;;;;;;;;15.30;99.90;;;;;;4960871;29;19927;-93
2021/06/05 03:56:19;;;;;;;;;;;15.20;99.90;;;;;;4944849;29;19926;-92
2021/06/05 03:58:46;;;;;;;;;;;15.20;99.90;;;;;;4944136;29;19933;-93
2021/06/05 04:01:15;;;;;;;;;;;15.10;99.90;;;;;;4943907;29;19938;-93
2021/06/05 04:03:43;;;;;;;;;;;15.20;99.90;;;;;;4943886;29;20318;-94
2021/06/05 04:06:11;;;;;;;;;;;15.20;99.90;;;;;;4943845;29;19933;-93
2021/06/05 04:08:38;;;;;;;;;;;15.20;99.90;;;;;;4944306;29;19937;-94
2021/06/05 04:11:05;;;;;;;;;;;15.20;99.90;;;;;;4943595;29;19926;-93
2021/06/05 04:13:39;;;;;;;;;;;15.30;99.90;;;;;;4943758;29;19927;-94
2021/06/05 04:16:09;;;;;;;;;;;15.40;99.90;;;;;;4943742;29;19946;-94
2021/06/05 04:18:38;;;;;;;;;;;15.50;99.90;;;;;;4943854;29;20413;-94
2021/06/05 04:21:06;;;;;;;;;;;15.50;99.90;;;;;;4943633;29;20013;-94
2021/06/05 04:27:06;;;;;;;;;;;15.70;99.90;;;;;;4960668;28;20024;-93
2021/06/05 04:29:33;;;;;;;;;;;15.70;99.90;;;;;;4944289;29;19934;-94
2021/06/05 04:32:01;;;;;;;;;;;15.80;99.90;;;;;;4948091;29;19926;-95
2021/06/05 04:34:28;;;;;;;;;;;15.90;99.90;;;;;;4955757;29;19933;-93
2021/06/05 04:36:55;;;;;;;;;;;15.90;99.90;;;;;;4956635;29;19933;-96
2021/06/05 04:39:23;;;;;;;;;;;16.00;99.90;;;;;;4944409;29;19941;-94
2021/06/05 04:42:00;;;;;;;;;;;16.00;99.90;;;;;;4943586;29;19926;-94
2021/06/05 04:44:28;;;;;;;;;;;16.20;99.90;;;;;;4943843;29;19981;-93
2021/06/05 04:46:55;;;;;;;;;;;16.30;99.90;;;;;;4943307;29;19981;-94
2021/06/05 04:49:23;;;;;;;;;;;16.40;99.90;;;;;;4943982;29;19927;-94
2021/06/05 04:51:51;;;;;;;;;;;16.50;99.90;;;;;;4943151;29;19927;-94
2021/06/05 04:54:18;;;;;;;;;;;16.60;99.90;;;;;;4945830;28;19916;-95
2021/06/05 04:56:47;;;;;;;;;;;16.60;99.90;;;;;;4964839;28;19926;-94
2021/06/05 04:59:15;;;;;;;;;;;16.90;99.90;;;;;;4951173;29;20377;-94
2021/06/05 05:01:43;;;;;;;;;;;17.00;99.90;;;;;;4943056;29;20001;-94
2021/06/05 05:04:12;;;;;;;;;;;17.10;99.90;;;;;;4942693;29;19927;-93
2021/06/05 05:06:41;;;;;;;;;;;17.20;99.90;;;;;;4942809;29;20422;-94
2021/06/05 05:09:09;;;;;;;;;;;17.40;99.90;;;;;;4942494;29;19931;-94
2021/06/05 05:11:36;;;;;;;;;;;17.40;99.90;;;;;;4942769;29;20322;-96
2021/06/05 05:14:04;;;;;;;;;;;17.20;99.90;;;;;;4943109;29;19938;-94
2021/06/05 05:16:41;;;;;;;;;;;17.00;99.90;;;;;;4943068;29;20079;-95
2021/06/05 05:19:14;;;;;;;;;;;16.90;99.90;;;;;;4946205;29;19926;-95
2021/06/05 05:21:42;;;;;;;;;;;16.80;99.90;;;;;;4942922;29;19969;-94
2021/06/05 05:24:10;;;;;;;;;;;16.80;99.90;;;;;;4942435;29;19927;-94
2021/06/05 05:26:37;;;;;;;;;;;16.80;99.90;;;;;;4942108;29;19927;-93
2021/06/05 05:29:04;;;;;;;;;;;16.80;99.90;;;;;;4942595;29;19934;-94
2021/06/05 05:31:31;;;;;;;;;;;16.70;99.90;;;;;;4944320;29;20009;-94
2021/06/05 05:34:00;;;;;;;;;;;16.80;99.90;;;;;;4942089;29;19934;-95
2021/06/05 05:36:28;;;;;;;;;;;16.80;99.90;;;;;;4941943;29;19938;-95
2021/06/05 05:38:56;;;;;;;;;;;16.80;99.90;;;;;;4942442;29;19953;-93
2021/06/05 05:41:27;;;;;;;;;;;16.80;99.90;;;;;;4943944;29;19927;-94
2021/06/05 05:43:55;;;;;;;;;;;16.70;99.90;;;;;;4942712;29;20013;-93
2021/06/05 05:46:22;;;;;;;;;;;16.60;99.90;;;;;;4942178;29;19933;-93
2021/06/05 05:48:50;;;;;;;;;;;16.60;99.90;;;;;;4942677;29;19981;-94
2021/06/05 05:51:18;;;;;;;;;;;16.40;99.90;;;;;;4943047;29;19938;-94
2021/06/05 05:53:45;;;;;;;;;;;16.50;99.90;;;;;;4958487;28;20367;-92
2021/06/05 05:56:13;;;;;;;;;;;16.30;99.90;;;;;;4942090;29;20314;-92
2021/06/05 05:58:42;;;;;;;;;;;16.30;99.90;;;;;;4941917;29;19946;-93
2021/06/05 06:01:10;;;;;;;;;;;16.30;99.90;;;;;;4941693;29;19934;-93
2021/06/05 06:03:42;;;;;;;;;;;16.30;99.90;;;;;;4942689;28;20318;-94
2021/06/05 06:06:09;;;;;;;;;;;16.30;99.90;;;;;;4940978;29;20097;-93
2021/06/05 06:08:36;;;;;;;;;;;16.50;99.90;;;;;;4945297;29;20405;-92
2021/06/05 06:11:05;;;;;;;;;;;16.60;99.90;;;;;;4945815;29;19926;-92
2021/06/05 06:13:32;;;;;;;;;;;16.60;99.90;;;;;;4945915;29;19933;-92
2021/06/05 06:15:59;;;;;;;;;;;16.80;99.90;;;;;;4943041;29;20274;-95
2021/06/05 06:18:26;;;;;;;;;;;16.90;99.90;;;;;;4942562;29;19999;-94
2021/06/05 06:20:54;;;;;;;;;;;16.90;99.90;;;;;;4942026;29;19978;-93
2021/06/05 06:23:22;;;;;;;;;;;16.90;99.90;;;;;;4942971;29;20362;-94
2021/06/05 06:25:50;;;;;;;;;;;17.10;99.90;;;;;;4941778;28;19933;-95
2021/06/05 06:28:22;;;;;;;;;;;17.30;99.90;;;;;;4942119;29;20001;-94
2021/06/05 06:30:50;;;;;;;;;;;17.50;99.90;;;;;;4942411;29;19953;-94
2021/06/05 06:33:17;;;;;;;;;;;17.60;99.90;;;;;;4941952;29;19933;-94
2021/06/05 06:35:44;;;;;;;;;;;17.70;99.90;;;;;;4941938;29;19926;-94
2021/06/05 06:38:22;;;;;;;;;;;17.70;99.90;;;;;;4941667;29;20000;-94
2021/06/05 06:40:49;;;;;;;;;;;17.90;99.90;;;;;;4942896;29;20009;-94
2021/06/05 06:43:18;;;;;;;;;;;18.00;99.90;;;;;;4958730;28;19938;-94
2021/06/05 06:45:48;;;;;;;;;;;17.90;99.90;;;;;;4957118;28;20307;-93
2021/06/05 06:48:16;;;;;;;;;;;18.00;99.90;;;;;;4959713;29;19926;-94
2021/06/05 06:50:43;;;;;;;;;;;18.20;99.90;;;;;;4942827;29;20282;-94
2021/06/05 06:53:10;;;;;;;;;;;18.50;99.90;;;;;;4942510;29;19930;-94
2021/06/05 06:55:37;;;;;;;;;;;18.90;99.90;;;;;;4941752;29;19927;-93
2021/06/05 06:58:04;;;;;;;;;;;19.10;99.90;;;;;;4942817;29;19927;-93
2021/06/05 07:00:43;;;;;;;;;;;19.30;99.90;;;;;;4946661;29;19917;-94
2021/06/05 07:03:11;;;;;;;;;;;19.30;99.90;;;;;;4946447;29;19930;-95
2021/06/05 07:05:38;;;;;;;;;;;19.30;99.90;;;;;;4929270;29;19926;-96
2021/06/05 07:08:26;;;;;;;;;;;19.10;99.90;;;;;;4961426;28;19926;-96
2021/06/05 07:10:59;;;;;;;;;;;19.20;99.90;;;;;;4956102;28;19974;-95
2021/06/05 07:13:41;;;;;;;;;;;19.20;99.90;;;;;;4939348;29;19990;-94
2021/06/05 07:16:08;;;;;;;;;;;19.10;99.90;;;;;;4922734;29;19984;-94
2021/06/05 07:18:36;;;;;;;;;;;19.10;99.90;;;;;;4929880;29;19935;-94
2021/06/05 07:21:04;;;;;;;;;;;19.40;99.90;;;;;;4921777;29;19927;-95
2021/06/05 07:23:33;;;;;;;;;;;19.40;99.90;;;;;;4921057;29;19927;-93
2021/06/05 07:26:02;;;;;;;;;;;19.30;99.90;;;;;;4922743;29;19927;-95
2021/06/05 07:28:31;;;;;;;;;;;19.20;99.90;;;;;;4921189;29;19931;-94
2021/06/05 07:30:59;;;;;;;;;;;19.10;99.90;;;;;;4920708;29;19975;-94
2021/06/05 07:33:27;;;;;;;;;;;19.10;99.90;;;;;;4906002;29;19934;-94
2021/06/05 07:35:56;;;;;;;;;;;19.10;99.90;;;;;;4905225;29;19927;-93
2021/06/05 07:38:24;;;;;;;;;;;19.40;99.90;;;;;;4905703;29;20390;-93
2021/06/05 07:40:52;;;;;;;;;;;19.70;99.90;;;;;;4920851;29;20386;-94
2021/06/05 07:43:20;;;;;;;;;;;19.90;99.90;;;;;;4904959;29;19934;-94
2021/06/05 07:45:47;;;;;;;;;;;20.10;99.90;;;;;;4943552;29;19926;-94
2021/06/05 07:48:14;;;;;;;;;;;20.40;99.90;;;;;;4948620;29;19927;-93
2021/06/05 07:50:42;;;;;;;;;;;20.60;99.90;;;;;;4951451;29;19942;-93
2021/06/05 07:53:08;;;;;;;;;;;20.70;99.90;;;;;;4949404;29;19962;-96
2021/06/05 07:55:35;;;;;;;;;;;20.70;99.90;;;;;;4944450;29;19926;-93
2021/06/05 07:58:03;;;;;;;;;;;20.80;99.90;;;;;;4949898;29;19926;-94
2021/06/05 08:00:31;;;;;;;;;;;20.90;99.90;;;;;;4952012;28;19927;-95
2021/06/05 08:02:58;;;;;;;;;;;20.90;99.90;;;;;;4948637;29;20326;-94
2021/06/05 08:05:28;;;;;;;;;;;20.80;99.90;;;;;;5090755;23;19982;-95
2021/06/05 08:07:55;;;;;;;;;;;20.60;99.90;;;;;;4943573;29;19926;-93
2021/06/05 08:10:25;;;;;;;;;;;20.60;99.90;;;;;;4944123;29;19927;-94
2021/06/05 08:12:52;;;;;;;;;;;20.40;99.90;;;;;;4943499;29;19934;-91
2021/06/05 08:15:21;;;;;;;;;;;20.20;99.90;;;;;;4943308;29;19977;-92
2021/06/05 08:17:49;;;;;;;;;;;20.20;99.90;;;;;;4944711;29;19954;-94
2021/06/05 08:20:23;;;;;;;;;;;20.10;99.90;;;;;;4947769;29;19945;-96
2021/06/05 08:22:52;;;;;;;;;;;20.10;99.90;;;;;;4948370;29;19930;-95
2021/06/05 08:25:19;;;;;;;;;;;20.00;99.90;;;;;;4946435;29;19926;-95
2021/06/05 08:27:47;;;;;;;;;;;20.00;99.90;;;;;;4944166;29;20021;-94
2021/06/05 08:30:19;;;;;;;;;;;19.90;99.90;;;;;;4955866;28;19966;-95
2021/06/05 08:32:46;;;;;;;;;;;20.00;99.90;;;;;;4963373;28;19927;-94
2021/06/05 08:35:14;;;;;;;;;;;20.00;99.90;;;;;;4949538;29;19927;-93
2021/06/05 08:37:42;;;;;;;;;;;20.10;99.90;;;;;;4945228;29;19926;-96
2021/06/05 08:40:11;;;;;;;;;;;20.20;99.90;;;;;;4944916;29;19936;-95
2021/06/05 08:42:46;;;;;;;;;;;20.30;99.90;;;;;;4944964;29;19937;-96
2021/06/05 08:45:14;;;;;;;;;;;20.30;99.90;;;;;;4945100;29;19926;-95
2021/06/05 08:47:41;;;;;;;;;;;20.40;99.90;;;;;;4945321;29;19927;-95
2021/06/05 08:50:10;;;;;;;;;;;20.50;99.90;;;;;;4947050;29;19926;-96
2021/06/05 08:55:25;;;;;;;;;;;20.60;99.90;;;;;;5018005;23;19927;-89
2021/06/05 08:57:52;;;;;;;;;;;20.60;99.90;;;;;;4943793;29;19937;-92
2021/06/05 09:00:36;;;;;;;;;;;20.60;99.90;;;;;;4948098;29;19954;-94
2021/06/05 09:03:09;;;;;;;;;;;20.60;99.90;;;;;;4947611;29;20043;-95
2021/06/05 09:09:16;;;;;;;;;;;21.10;99.90;;;;;;4959984;29;19922;-94
2021/06/05 09:11:43;;;;;;;;;;;21.70;99.90;;;;;;4945500;29;19937;-93
2021/06/05 09:14:16;;;;;;;;;;;22.20;99.90;;;;;;4948834;29;19934;-96
2021/06/05 09:16:47;;;;;;;;;;;22.00;99.90;;;;;;4948901;29;19927;-92
2021/06/05 09:19:26;;;;;;;;;;;22.40;99.90;;;;;;4948980;29;20405;-96
2021/06/05 09:22:13;;;;;;;;;;;22.30;99.90;;;;;;4945924;29;20370;-95
2021/06/05 09:25:25;;;;;;;;;;;22.20;99.90;;;;;;4960404;29;19938;-96
2021/06/05 09:28:38;;;;;;;;;;;22.30;99.90;;;;;;5736545;23;20002;-96
2021/06/05 09:41:42;;;;;;;;;;;21.90;99.90;;;;;;4974364;29;19938;-94
2021/06/05 09:44:27;;;;;;;;;;;22.20;99.90;;;;;;4952344;29;19931;-91
2021/06/05 09:47:05;;;;;;;;;;;22.40;99.90;;;;;;4958985;23;19926;-95
2021/06/05 09:49:38;;;;;;;;;;;22.50;99.90;;;;;;4932585;29;19962;-94
2021/06/05 10:02:34;;;;;;;;;;;22.80;99.90;;;;;;4958467;29;19979;-91
2021/06/05 10:05:07;;;;;;;;;;;23.00;99.90;;;;;;4941108;29;19950;-91
2021/06/05 10:07:35;;;;;;;;;;;23.00;98.60;;;;;;4941209;29;20271;-91
2021/06/05 10:10:07;;;;;;;;;;;23.00;99.60;;;;;;4941683;29;20370;-90
2021/06/05 10:12:37;;;;;;;;;;;23.00;98.60;;;;;;4941700;29;20001;-87
2021/06/05 10:15:06;;;;;;;;;;;23.10;99.20;;;;;;4945319;29;19990;-95
2021/06/05 10:17:39;;;;;;;;;;;23.00;98.60;;;;;;4952321;28;19914;-92
2021/06/05 10:20:19;;;;;;;;;;;23.00;98.90;;;;;;4961251;28;19935;-92
2021/06/05 10:22:51;;;;;;;;;;;23.10;98.40;;;;;;4951596;28;19937;-94
2021/06/05 10:25:21;;;;;;;;;;;23.20;98.10;;;;;;4950433;29;19926;-95
2021/06/05 10:27:49;;;;;;;;;;;23.20;97.30;;;;;;4943947;29;19926;-96
2021/06/05 10:30:33;;;;;;;;;;;23.00;99.30;;;;;;4944123;29;19954;-93
2021/06/05 10:33:02;;;;;;;;;;;23.00;98.20;;;;;;4951368;29;19981;-92
2021/06/05 10:35:31;;;;;;;;;;;23.00;97.10;;;;;;4959598;28;19927;-92
2021/06/05 10:38:23;;;;;;;;;;;23.00;97.00;;;;;;4959343;29;19927;-92
2021/06/05 10:40:51;;;;;;;;;;;23.00;96.40;;;;;;4952939;28;19926;-91
2021/06/05 10:43:22;;;;;;;;;;;23.00;97.00;;;;;;4942358;29;19926;-93
2021/06/05 10:45:49;;;;;;;;;;;23.10;97.80;;;;;;4941150;29;19973;-94
2021/06/05 10:48:21;;;;;;;;;;;23.10;97.00;;;;;;4941882;29;19933;-92
2021/06/05 10:54:22;;;;;;;;;;;23.50;96.80;;;;;;4958309;29;20022;-94
2021/06/05 10:56:49;;;;;;;;;;;23.70;94.70;;;;;;4942078;29;19926;-93
2021/06/05 10:59:35;;;;;;;;;;;23.70;95.50;;;;;;4932184;29;19931;-94
2021/06/05 11:02:02;;;;;;;;;;;23.70;96.40;;;;;;4931278;29;19927;-94
2021/06/05 11:04:31;;;;;;;;;;;23.70;95.80;;;;;;4929394;29;19955;-91
2021/06/05 11:07:01;;;;;;;;;;;23.60;97.10;;;;;;4924563;29;19931;-94
2021/06/05 11:09:30;;;;;;;;;;;23.60;96.30;;;;;;4921582;29;19978;-94
2021/06/05 11:12:00;;;;;;;;;;;23.60;98.30;;;;;;4921638;29;19986;-92
2021/06/05 11:14:36;;;;;;;;;;;23.60;94.60;;;;;;4921621;29;20330;-92
2021/06/05 11:17:09;;;;;;;;;;;23.60;94.20;;;;;;4921569;29;19986;-91
2021/06/05 11:19:44;;;;;;;;;;;23.60;94.80;;;;;;4921701;29;19934;-94
2021/06/05 11:22:12;;;;;;;;;;;23.80;94.70;;;;;;4923315;29;19927;-92
2021/06/05 11:24:44;;;;;;;;;;;23.80;95.80;;;;;;4926751;29;19927;-94
2021/06/05 11:27:39;;;;;;;;;;;24.00;94.60;;;;;;4927307;29;19926;-95
2021/06/05 11:30:21;;;;;;;;;;;24.20;93.90;;;;;;4923531;29;19957;-93
2021/06/05 11:33:07;;;;;;;;;;;24.60;96.00;;;;;;4921587;29;19934;-95
2021/06/05 11:39:22;;;;;;;;;;;25.50;93.30;;;;;;4939329;29;19997;-94
2021/06/05 11:41:52;;;;;;;;;;;25.70;90.70;;;;;;4937493;29;19994;-92
2021/06/05 11:44:33;;;;;;;;;;;25.70;89.10;;;;;;4921415;29;20359;-93
2021/06/05 11:47:20;;;;;;;;;;;25.80;90.90;;;;;;4923533;29;19927;-92
2021/06/05 11:49:51;;;;;;;;;;;26.30;90.00;;;;;;4921843;29;19935;-95
2021/06/05 11:52:21;;;;;;;;;;;26.50;90.10;;;;;;4940398;29;19927;-93
2021/06/05 11:58:18;;;;;;;;;;;26.70;89.60;;;;;;4948813;28;19949;-96
2021/06/05 12:00:46;;;;;;;;;;;26.80;87.10;;;;;;4942140;29;19927;-96
2021/06/05 12:03:35;;;;;;;;;;;26.60;82.90;;;;;;4943836;29;20044;-93
2021/06/05 12:06:17;;;;;;;;;;;26.60;84.10;;;;;;4960672;28;19933;-92
2021/06/05 12:08:46;;;;;;;;;;;26.60;84.50;;;;;;4973357;28;19927;-96
2021/06/05 12:11:23;;;;;;;;;;;26.50;87.30;;;;;;4946859;29;19930;-93
2021/06/05 12:14:02;;;;;;;;;;;26.90;85.70;;;;;;4949135;29;19926;-95
2021/06/05 12:20:03;;;;;;;;;;;27.20;82.20;;;;;;4975866;28;19929;-94
2021/06/05 12:22:46;;;;;;;;;;;26.40;86.30;;;;;;4963052;29;19933;-95
2021/06/05 12:25:33;;;;;;;;;;;26.60;83.10;;;;;;4874344;29;19935;-95
2021/06/05 12:28:16;;;;;;;;;;;26.40;82.90;;;;;;4907129;29;19934;-95
2021/06/05 12:30:46;;;;;;;;;;;25.60;81.60;;;;;;4901826;29;20376;-95
2021/06/05 12:33:23;;;;;;;;;;;24.90;86.20;;;;;;4903409;29;20431;-94
2021/06/05 12:35:50;;;;;;;;;;;24.60;87.40;;;;;;4904833;29;19939;-95
2021/06/05 12:38:36;;;;;;;;;;;23.80;89.40;;;;;;4904558;29;19932;-95
2021/06/05 12:41:06;;;;;;;;;;;23.40;90.50;;;;;;4902562;29;19932;-93
2021/06/05 12:43:37;;;;;;;;;;;22.90;91.20;;;;;;4913995;29;19933;-93
2021/06/05 12:46:10;;;;;;;;;;;22.70;91.90;;;;;;4912204;29;19936;-94
2021/06/05 12:48:51;;;;;;;;;;;22.80;93.50;;;;;;4904841;29;19931;-94
2021/06/05 12:51:20;;;;;;;;;;;22.90;91.60;;;;;;4902381;29;19932;-93
2021/06/05 12:53:55;;;;;;;;;;;23.30;93.40;;;;;;4904988;29;19980;-90
2021/06/05 12:56:31;;;;;;;;;;;23.80;91.10;;;;;;4926341;29;19927;-93
2021/06/05 12:59:00;;;;;;;;;;;24.20;88.00;;;;;;4943166;29;19930;-92
2021/06/05 13:01:38;;;;;;;;;;;24.40;90.50;;;;;;4942754;29;19926;-93
2021/06/05 13:04:07;;;;;;;;;;;24.70;88.10;;;;;;4942939;29;20263;-93
2021/06/05 13:06:54;;;;;;;;;;;24.80;88.20;;;;;;4942684;29;20009;-90
2021/06/05 13:09:22;;;;;;;;;;;25.10;87.10;;;;;;4930256;29;19938;-93
2021/06/05 13:15:18;;;;;;;;;;;25.90;82.20;;;;;;4958410;28;19938;-93
2021/06/05 13:17:53;;;;;;;;;;;25.70;84.40;;;;;;4943453;29;19927;-91
2021/06/05 13:20:23;;;;;;;;;;;25.30;86.20;;;;;;4944261;29;20019;-91
2021/06/05 13:26:33;;;;;;;;;;;24.30;90.30;;;;;;4967774;29;20063;-92
2021/06/05 13:29:18;;;;;;;;;;;23.80;89.10;;;;;;4943262;29;19973;-89
2021/06/05 13:31:50;;;;;;;;;;;23.60;89.20;;;;;;4946147;29;20013;-91
2021/06/05 13:34:28;;;;;;;;;;;23.20;88.80;;;;;;4942412;29;19927;-89
2021/06/05 13:37:13;;;;;;;;;;;23.10;90.90;;;;;;4942413;29;19926;-94
2021/06/05 13:39:47;;;;;;;;;;;23.00;92.70;;;;;;4961075;29;19926;-90
2021/06/05 13:42:14;;;;;;;;;;;22.70;92.10;;;;;;4941661;29;19950;-91
2021/06/05 13:44:44;;;;;;;;;;;22.10;93.60;;;;;;4942641;29;19938;-87
2021/06/05 13:47:11;;;;;;;;;;;21.50;94.60;;;;;;4944301;29;19927;-93
2021/06/05 13:49:39;;;;;;;;;;;21.20;95.70;;;;;;4955566;28;19950;-93
2021/06/05 13:52:11;;;;;;;;;;;20.80;94.80;;;;;;4959378;28;19930;-88
2021/06/05 13:54:45;;;;;;;;;;;20.50;95.20;;;;;;4980582;28;19986;-89
2021/06/05 13:57:23;;;;;;;;;;;20.50;98.80;;;;;;4964297;28;19930;-96
2021/06/05 14:11:42;;;;;;;;;;;18.20;99.90;;;;;;4943685;29;19954;-94
2021/06/05 14:16:52;;;;;;;;;;;16.90;99.90;;;;;;4923585;29;19931;-96
2021/06/05 14:19:37;;;;;;;;;;;16.60;99.90;;;;;;4907129;29;19975;-96
2021/06/05 14:22:23;;;;;;;;;;;16.50;99.90;;;;;;4925950;29;19933;-96
2021/06/05 14:24:59;;;;;;;;;;;16.50;99.90;;;;;;4955726;23;19927;-95
2021/06/05 14:27:26;;;;;;;;;;;16.60;99.90;;;;;;4943007;29;20013;-95
2021/06/05 14:29:53;;;;;;;;;;;16.70;99.90;;;;;;4942733;29;19933;-96
2021/06/05 14:32:24;;;;;;;;;;;16.80;99.90;;;;;;4943600;29;19926;-96
2021/06/05 14:34:51;;;;;;;;;;;17.10;99.90;;;;;;4945570;29;19927;-93
2021/06/05 14:37:18;;;;;;;;;;;17.90;99.90;;;;;;4944354;29;19927;-96
2021/06/05 14:39:46;;;;;;;;;;;18.60;99.90;;;;;;4951373;28;19962;-91
2021/06/05 14:42:19;;;;;;;;;;;19.50;99.90;;;;;;4960942;28;19937;-93
2021/06/05 14:44:47;;;;;;;;;;;20.20;99.90;;;;;;4958569;29;19954;-91
2021/06/05 14:47:21;;;;;;;;;;;20.50;99.90;;;;;;4953775;29;19926;-94
2021/06/05 14:49:48;;;;;;;;;;;21.10;99.90;;;;;;4943838;29;19942;-96
2021/06/05 14:52:18;;;;;;;;;;;21.60;99.90;;;;;;4942064;29;19934;-96
2021/06/05 14:54:45;;;;;;;;;;;22.30;99.90;;;;;;4941132;29;19930;-96
2021/06/05 14:57:12;;;;;;;;;;;22.80;99.90;;;;;;4940954;29;19934;-96
2021/06/05 14:59:39;;;;;;;;;;;23.50;99.90;;;;;;4941156;29;19926;-96
2021/06/05 15:02:06;;;;;;;;;;;23.70;99.90;;;;;;4941808;29;19930;-96
2021/06/05 15:04:33;;;;;;;;;;;24.20;99.90;;;;;;4942275;29;19942;-94
2021/06/05 15:07:01;;;;;;;;;;;24.80;99.90;;;;;;4943245;29;19934;-95
2021/06/05 15:09:27;;;;;;;;;;;25.10;99.90;;;;;;4940848;29;19930;-94
2021/06/05 15:11:54;;;;;;;;;;;25.40;99.90;;;;;;4940722;29;20354;-94
2021/06/05 15:14:21;;;;;;;;;;;25.70;99.90;;;;;;4941641;29;19926;-95
2021/06/05 15:16:48;;;;;;;;;;;25.80;99.90;;;;;;4941702;29;19926;-93
2021/06/05 15:22:46;;;;;;;;;;;26.30;99.90;;;;;;4966099;29;19922;-95
2021/06/05 15:25:14;;;;;;;;;;;26.60;99.90;;;;;;4952659;29;19990;-95
2021/06/05 15:27:41;;;;;;;;;;;26.80;99.90;;;;;;4943907;29;19934;-96
2021/06/05 15:30:10;;;;;;;;;;;26.70;99.90;;;;;;4951492;28;19935;-92
2021/06/05 15:32:38;;;;;;;;;;;26.90;99.90;;;;;;4953826;28;19981;-94
2021/06/05 15:35:06;;;;;;;;;;;26.80;99.90;;;;;;4942022;29;19926;-93
2021/06/05 15:46:55;;;;;;;;;;;24.40;99.90;;;;;;4923923;29;20006;-93
2021/06/05 15:49:22;;;;;;;;;;;23.70;99.90;;;;;;4906144;29;20060;-95
2021/06/05 15:51:49;;;;;;;;;;;23.30;99.90;;;;;;4905400;29;19986;-93
2021/06/05 15:54:18;;;;;;;;;;;22.80;99.90;;;;;;4905703;29;19953;-93
2021/06/05 15:56:46;;;;;;;;;;;22.60;99.90;;;;;;4904465;29;20378;-90
2021/06/05 15:59:13;;;;;;;;;;;22.30;99.90;;;;;;4921597;29;19928;-94
2021/06/05 16:01:42;;;;;;;;;;;22.20;99.90;;;;;;4904943;29;20428;-89
2021/06/05 16:04:16;;;;;;;;;;;22.10;99.90;;;;;;4915712;29;19911;-91
2021/06/05 16:06:45;;;;;;;;;;;21.90;99.90;;;;;;4908022;23;19939;-94
2021/06/05 16:09:13;;;;;;;;;;;21.60;99.90;;;;;;4888775;29;20032;-90